createdAt,value
2024-03-01T00:02:16.966Z,101170.28
2024-03-01T00:04:44.137Z,101156.59
2024-03-01T00:07:11.327Z,101135.72
2024-03-01T00:09:38.517Z,101125.19
2024-03-01T00:12:05.934Z,101140.00
2024-03-01T00:14:33.469Z,101150.59
2024-03-01T00:17:00.814Z,101148.75
2024-03-01T00:19:28.048Z,101131.66
2024-03-01T00:21:55.185Z,101114.72
2024-03-01T00:24:22.290Z,101128.41
2024-03-01T00:26:49.552Z,101139.91
2024-03-01T00:29:16.632Z,101122.88
2024-03-01T00:31:43.829Z,101112.50
2024-03-01T00:34:10.890Z,101116.88
2024-03-01T00:36:38.016Z,101111.13
2024-03-01T00:39:05.130Z,101101.56
2024-03-01T00:41:32.184Z,101122.00
2024-03-01T00:44:00.410Z,101121.66
2024-03-01T00:46:28.266Z,101110.69
2024-03-01T00:48:56.052Z,101100.78
2024-03-01T00:51:23.572Z,101092.75
2024-03-01T00:53:51.362Z,101084.13
2024-03-01T00:56:18.646Z,101103.94
2024-03-01T00:58:46.479Z,101134.78
2024-03-01T01:01:14.459Z,101130.47
2024-03-01T01:03:41.641Z,101087.97
2024-03-01T01:06:08.847Z,101072.19
2024-03-01T01:09:06.913Z,101085.13
2024-03-01T01:11:34.049Z,101071.28
2024-03-01T01:14:01.151Z,101074.03
2024-03-01T01:16:28.340Z,101077.50
2024-03-01T01:18:57.292Z,101078.34
2024-03-01T01:21:24.400Z,101077.25
2024-03-01T01:23:51.723Z,101065.09
2024-03-01T01:26:18.879Z,101069.19
2024-03-01T01:28:46.066Z,101067.38
2024-03-01T01:31:13.130Z,101057.88
2024-03-01T01:33:40.367Z,101046.81
2024-03-01T01:36:07.521Z,101045.03
2024-03-01T01:38:34.646Z,101040.84
2024-03-01T01:41:01.784Z,101050.31
2024-03-01T01:43:29.073Z,101043.16
2024-03-01T01:45:56.519Z,101035.53
2024-03-01T01:48:23.745Z,101037.22
2024-03-01T01:50:51.203Z,101037.16
2024-03-01T01:53:24.392Z,101033.09
2024-03-01T01:55:54.788Z,101023.50
2024-03-01T01:58:22.962Z,101027.81
2024-03-01T02:00:50.662Z,101025.84
2024-03-01T02:03:18.228Z,101018.16
2024-03-01T02:05:45.981Z,101025.63
2024-03-01T02:08:13.019Z,101026.50
2024-03-01T02:10:40.189Z,101025.91
2024-03-01T02:13:19.412Z,101018.13
2024-03-01T02:15:48.283Z,101016.41
2024-03-01T02:18:15.423Z,101018.28
2024-03-01T02:21:11.384Z,101026.88
2024-03-01T02:23:39.283Z,101029.00
2024-03-01T02:26:07.216Z,101028.41
2024-03-01T02:28:35.285Z,101019.00
2024-03-01T02:31:03.442Z,101022.63
2024-03-01T02:33:30.618Z,101025.22
2024-03-01T02:35:57.763Z,101025.16
2024-03-01T02:38:24.944Z,101013.69
2024-03-01T02:40:51.994Z,101012.56
2024-03-01T02:43:19.114Z,101002.13
2024-03-01T02:45:46.369Z,101002.13
2024-03-01T02:48:13.500Z,101003.44
2024-03-01T02:50:40.617Z,101000.56
2024-03-01T02:53:07.688Z,101009.03
2024-03-01T02:55:34.859Z,101009.53
2024-03-01T02:58:02.367Z,101004.69
2024-03-01T03:00:29.686Z,101001.53
2024-03-01T03:02:56.927Z,101002.47
2024-03-01T03:05:24.142Z,100989.06
2024-03-01T03:07:51.537Z,100995.31
2024-03-01T03:10:18.989Z,100996.31
2024-03-01T03:12:46.167Z,101008.63
2024-03-01T03:15:14.974Z,101000.56
2024-03-01T03:17:42.209Z,100997.03
2024-03-01T03:20:12.618Z,100999.69
2024-03-01T03:22:48.073Z,100994.34
2024-03-01T03:25:16.092Z,100983.94
2024-03-01T03:27:44.785Z,100993.44
2024-03-01T03:30:12.359Z,100993.25
2024-03-01T03:32:39.531Z,100992.16
2024-03-01T03:35:06.975Z,100981.53
2024-03-01T03:37:34.244Z,100982.50
2024-03-01T03:40:01.893Z,100973.84
2024-03-01T03:42:29.224Z,100976.41
2024-03-01T03:44:56.318Z,100984.34
2024-03-01T03:47:23.513Z,100975.78
2024-03-01T03:49:50.573Z,100977.50
2024-03-01T03:52:17.661Z,100975.63
2024-03-01T03:54:44.767Z,100978.41
2024-03-01T03:57:11.788Z,100981.56
2024-03-01T03:59:38.921Z,100983.41
2024-03-01T04:02:06.719Z,100976.47
2024-03-01T04:04:34.143Z,100983.47
2024-03-01T04:07:01.373Z,100983.47
2024-03-01T04:09:28.509Z,100977.41
2024-03-01T04:11:55.626Z,100976.47
2024-03-01T04:14:22.829Z,100972.06
2024-03-01T04:16:49.874Z,100981.81
2024-03-01T04:19:17.048Z,100985.28
2024-03-01T04:21:44.489Z,100982.78
2024-03-01T04:24:13.726Z,100980.25
2024-03-01T04:26:41.571Z,100980.16
2024-03-01T04:29:08.714Z,100980.16
2024-03-01T04:31:37.490Z,100978.44
2024-03-01T04:34:07.926Z,100974.16
2024-03-01T04:36:37.488Z,100967.22
2024-03-01T04:39:04.925Z,100960.31
2024-03-01T04:41:32.103Z,100962.78
2024-03-01T04:43:59.238Z,100955.84
2024-03-01T04:46:27.062Z,100955.84
2024-03-01T04:48:56.357Z,100963.69
2024-03-01T04:51:25.630Z,100967.28
2024-03-01T04:53:52.840Z,100970.97
2024-03-01T04:56:20.036Z,100977.09
2024-03-01T04:58:47.190Z,100985.06
2024-03-01T05:01:18.035Z,100982.44
2024-03-01T05:03:46.094Z,100984.13
2024-03-01T05:06:13.618Z,100979.69
2024-03-01T05:08:40.767Z,100981.50
2024-03-01T05:11:08.080Z,100970.06
2024-03-01T05:13:35.425Z,100962.94
2024-03-01T05:16:02.792Z,100964.63
2024-03-01T05:18:30.618Z,100971.50
2024-03-01T05:20:57.694Z,100973.34
2024-03-01T05:23:24.953Z,100970.91
2024-03-01T05:25:53.416Z,100976.09
2024-03-01T05:28:20.864Z,100977.06
2024-03-01T05:30:51.929Z,100980.56
2024-03-01T05:33:21.015Z,100974.50
2024-03-01T05:35:48.280Z,100973.56
2024-03-01T05:38:15.567Z,100974.47
2024-03-01T05:40:47.390Z,100970.09
2024-03-01T05:43:23.712Z,100974.56
2024-03-01T05:45:53.665Z,100971.91
2024-03-01T05:48:21.549Z,100973.78
2024-03-01T05:50:48.773Z,100985.06
2024-03-01T05:53:17.032Z,100985.97
2024-03-01T05:55:45.223Z,100989.44
2024-03-01T05:58:12.556Z,100989.28
2024-03-01T06:00:44.840Z,100995.59
2024-03-01T06:03:12.014Z,100985.13
2024-03-01T06:05:39.127Z,100982.56
2024-03-01T06:08:06.498Z,100986.13
2024-03-01T06:10:33.719Z,101004.56
2024-03-01T06:13:01.211Z,101007.22
2024-03-01T06:15:28.400Z,101019.53
2024-03-01T06:17:55.529Z,101030.06
2024-03-01T06:20:22.820Z,101030.09
2024-03-01T06:22:50.149Z,101040.25
2024-03-01T06:25:17.430Z,101039.06
2024-03-01T06:27:44.555Z,101042.44
2024-03-01T06:30:11.735Z,101046.19
2024-03-01T06:32:38.946Z,101052.53
2024-03-01T06:35:06.281Z,101041.94
2024-03-01T06:37:33.513Z,101034.47
2024-03-01T06:40:02.115Z,101024.38
2024-03-01T06:42:29.476Z,101024.34
2024-03-01T06:44:56.639Z,101027.66
2024-03-01T06:47:23.869Z,101004.69
2024-03-01T06:49:50.950Z,101001.44
2024-03-01T06:52:18.090Z,100991.88
2024-03-01T06:54:48.359Z,100985.78
2024-03-01T06:57:15.607Z,100996.38
2024-03-01T06:59:42.749Z,100987.84
2024-03-01T07:02:11.425Z,100978.25
2024-03-01T07:04:38.725Z,100973.84
2024-03-01T07:07:06.052Z,100962.47
2024-03-01T07:09:33.814Z,100968.59
2024-03-01T07:12:00.845Z,100963.31
2024-03-01T07:14:28.044Z,100966.69
2024-03-01T07:16:55.049Z,100971.84
2024-03-01T07:19:22.232Z,100971.88
2024-03-01T07:21:49.493Z,100966.75
2024-03-01T07:24:16.715Z,100969.38
2024-03-01T07:26:43.757Z,100975.69
2024-03-01T07:29:10.814Z,100971.28
2024-03-01T07:31:38.273Z,100974.59
2024-03-01T07:34:05.569Z,100961.84
2024-03-01T07:36:32.883Z,100975.28
2024-03-01T07:39:00.074Z,100982.94
2024-03-01T07:41:27.219Z,100985.28
2024-03-01T07:43:54.353Z,100996.44
2024-03-01T07:46:21.517Z,100993.38
2024-03-01T07:48:48.624Z,100991.09
2024-03-01T07:51:15.841Z,100983.06
2024-03-01T07:53:44.169Z,100993.75
2024-03-01T07:56:11.937Z,100990.59
2024-03-01T07:58:39.480Z,100982.38
2024-03-01T08:01:06.965Z,100975.53
2024-03-01T08:03:37.125Z,100980.34
2024-03-01T08:06:04.447Z,100979.88
2024-03-01T08:08:37.423Z,100985.34
2024-03-01T08:11:10.164Z,100965.66
2024-03-01T08:13:38.476Z,100975.88
2024-03-01T08:16:15.470Z,100988.09
2024-03-01T08:18:44.282Z,100973.53
2024-03-01T08:21:15.629Z,100977.81
2024-03-01T08:23:44.495Z,100984.03
2024-03-01T08:26:30.576Z,100979.38
2024-03-01T08:29:01.689Z,100978.81
2024-03-01T08:31:37.762Z,100973.56
2024-03-01T08:34:09.075Z,100968.16
2024-03-01T08:36:36.649Z,100957.50
2024-03-01T08:39:12.053Z,100966.31
2024-03-01T08:41:40.887Z,100961.81
2024-03-01T08:44:40.340Z,100949.03
2024-03-01T08:47:16.575Z,100946.38
2024-03-01T08:49:57.255Z,100948.38
2024-03-01T08:52:35.744Z,100940.19
2024-03-01T08:55:11.892Z,100934.84
2024-03-01T08:57:39.894Z,100934.44
2024-03-01T09:00:24.075Z,100933.94
2024-03-01T09:02:51.314Z,100928.53
2024-03-01T09:05:18.633Z,100923.38
2024-03-01T09:07:46.322Z,100924.22
2024-03-01T09:10:29.267Z,100926.34
2024-03-01T09:12:57.015Z,100921.09
2024-03-01T09:15:25.711Z,100920.75
2024-03-01T09:17:54.431Z,100916.59
2024-03-01T09:20:41.263Z,100914.63
2024-03-01T09:23:13.793Z,100907.66
2024-03-01T09:25:49.913Z,100913.69
2024-03-01T09:28:18.570Z,100912.56
2024-03-01T09:30:53.190Z,100911.53
2024-03-01T09:33:22.041Z,100903.00
2024-03-01T09:35:53.209Z,100897.72
2024-03-01T09:38:25.270Z,100902.97
2024-03-01T09:40:52.496Z,100892.13
2024-03-01T09:43:34.731Z,100899.53
2024-03-01T09:46:16.708Z,100897.81
2024-03-01T09:49:08.521Z,100886.16
2024-03-01T09:51:50.553Z,100890.31
2024-03-01T09:54:38.568Z,100882.75
2024-03-01T09:57:24.750Z,100882.88
2024-03-01T10:00:11.263Z,100874.00
2024-03-01T10:02:55.661Z,100876.59
2024-03-01T10:05:34.621Z,100879.38
2024-03-01T10:08:40.198Z,100867.97
2024-03-01T10:11:23.265Z,100865.69
2024-03-01T10:14:06.209Z,100846.28
2024-03-01T10:16:36.310Z,100844.81
2024-03-01T10:19:11.986Z,100837.63
2024-03-01T10:21:53.834Z,100846.81
2024-03-01T10:24:44.017Z,100852.47
2024-03-01T10:27:35.896Z,100855.22
2024-03-01T10:30:16.388Z,100854.91
2024-03-01T10:32:49.322Z,100854.47
2024-03-01T10:35:27.095Z,100851.78
2024-03-01T10:38:21.753Z,100847.66
2024-03-01T10:41:22.797Z,100846.47
2024-03-01T10:44:21.905Z,100839.13
2024-03-01T10:46:51.830Z,100849.53
2024-03-01T10:49:35.998Z,100842.50
2024-03-01T10:52:11.575Z,100828.94
2024-03-01T10:54:41.907Z,100827.38
2024-03-01T10:57:12.571Z,100819.34
2024-03-01T10:59:49.212Z,100818.81
2024-03-01T11:02:22.251Z,100816.34
2024-03-01T11:04:49.962Z,100818.22
2024-03-01T11:07:29.836Z,100808.09
2024-03-01T11:10:10.389Z,100809.94
2024-03-01T11:13:06.152Z,100815.19
2024-03-01T11:15:36.927Z,100818.06
2024-03-01T11:18:10.899Z,100804.75
2024-03-01T11:20:38.823Z,100797.91
2024-03-01T11:23:29.545Z,100795.47
2024-03-01T11:26:15.082Z,100806.66
2024-03-01T11:28:49.578Z,100804.47
2024-03-01T11:31:22.500Z,100801.06
2024-03-01T11:33:50.427Z,100805.28
2024-03-01T11:36:43.767Z,100810.47
2024-03-01T11:39:38.180Z,100796.59
2024-03-01T11:42:27.832Z,100804.16
2024-03-01T11:45:28.528Z,100795.81
2024-03-01T11:48:26.695Z,100794.94
2024-03-01T11:51:22.686Z,100783.66
2024-03-01T11:53:49.537Z,100766.91
2024-03-01T11:56:35.116Z,100751.91
2024-03-01T11:59:25.478Z,100742.09
2024-03-01T12:01:55.691Z,100741.34
2024-03-01T12:04:52.952Z,100739.69
2024-03-01T12:07:26.127Z,100736.22
2024-03-01T12:10:32.365Z,100743.09
2024-03-01T12:13:08.753Z,100733.31
2024-03-01T12:16:05.251Z,100731.81
2024-03-01T12:18:41.470Z,100726.09
2024-03-01T12:21:20.478Z,100717.81
2024-03-01T12:24:08.646Z,100709.78
2024-03-01T12:26:58.197Z,100702.88
2024-03-01T12:30:00.425Z,100691.72
2024-03-01T12:32:50.728Z,100691.25
2024-03-01T12:35:20.762Z,100692.69
2024-03-01T12:38:00.521Z,100701.63
2024-03-01T12:40:31.699Z,100700.63
2024-03-01T12:43:09.571Z,100701.13
2024-03-01T12:46:14.026Z,100689.44
2024-03-01T12:48:53.158Z,100686.91
2024-03-01T12:51:29.368Z,100689.84
2024-03-01T12:54:06.123Z,100691.53
2024-03-01T12:57:11.852Z,100699.66
2024-03-01T12:59:49.541Z,100684.81
2024-03-01T13:02:42.685Z,100674.50
2024-03-01T13:05:42.258Z,100687.22
2024-03-01T13:08:21.911Z,100683.63
2024-03-01T13:10:49.215Z,100690.03
2024-03-01T13:13:22.794Z,100677.50
2024-03-01T13:15:55.943Z,100675.59
2024-03-01T13:18:30.119Z,100670.13
2024-03-01T13:21:09.417Z,100675.16
2024-03-01T13:23:40.819Z,100661.66
2024-03-01T13:26:25.771Z,100659.16
2024-03-01T13:29:04.955Z,100655.66
2024-03-01T13:32:00.687Z,100662.78
2024-03-01T13:34:32.974Z,100688.78
2024-03-01T13:37:10.788Z,100677.59
2024-03-01T13:40:01.504Z,100676.44
2024-03-01T13:42:51.275Z,100672.13
2024-03-01T13:45:28.573Z,100679.97
2024-03-01T13:48:09.028Z,100678.38
2024-03-01T13:50:39.717Z,100690.56
2024-03-01T13:53:09.346Z,100686.16
2024-03-01T13:55:39.010Z,100687.78
2024-03-01T13:58:07.334Z,100681.94
2024-03-01T14:00:35.420Z,100687.09
2024-03-01T14:03:04.245Z,100683.50
2024-03-01T14:05:32.251Z,100695.75
2024-03-01T14:08:02.421Z,100703.22
2024-03-01T14:10:30.029Z,100707.03
2024-03-01T14:12:57.712Z,100702.69
2024-03-01T14:15:25.128Z,100701.94
2024-03-01T14:17:52.293Z,100701.97
2024-03-01T14:20:20.824Z,100710.75
2024-03-01T14:22:54.767Z,100704.63
2024-03-01T14:25:25.529Z,100709.91
2024-03-01T14:27:58.373Z,100707.25
2024-03-01T14:30:27.072Z,100699.19
2024-03-01T14:33:08.593Z,100690.41
2024-03-01T14:35:35.675Z,100697.22
2024-03-01T14:38:21.196Z,100698.97
2024-03-01T14:40:58.648Z,100692.06
2024-03-01T14:43:27.617Z,100685.75
2024-03-01T14:45:58.741Z,100691.81
2024-03-01T14:48:30.408Z,100686.72
2024-03-01T14:50:59.423Z,100678.72
2024-03-01T14:53:47.289Z,100680.28
2024-03-01T14:56:15.232Z,100682.06
2024-03-01T14:58:45.945Z,100681.13
2024-03-01T15:01:14.090Z,100667.19
2024-03-01T15:03:41.612Z,100676.16
2024-03-01T15:06:10.189Z,100670.06
2024-03-01T15:08:38.357Z,100662.19
2024-03-01T15:11:09.564Z,100652.63
2024-03-01T15:13:37.981Z,100664.00
2024-03-01T15:16:09.268Z,100687.72
2024-03-01T15:18:42.742Z,100682.38
2024-03-01T15:21:13.527Z,100682.44
2024-03-01T15:23:41.758Z,100672.72
2024-03-01T15:26:09.868Z,100676.22
2024-03-01T15:28:38.132Z,100680.66
2024-03-01T15:31:06.880Z,100681.56
2024-03-01T15:33:34.395Z,100673.69
2024-03-01T15:36:01.449Z,100673.78
2024-03-01T15:38:28.592Z,100663.34
2024-03-01T15:40:57.831Z,100658.84
2024-03-01T15:43:25.466Z,100657.91
2024-03-01T15:45:52.977Z,100658.91
2024-03-01T15:48:20.258Z,100672.91
2024-03-01T15:50:47.420Z,100669.25
2024-03-01T15:53:16.360Z,100676.28
2024-03-01T15:55:49.035Z,100680.78
2024-03-01T15:58:16.228Z,100682.28
2024-03-01T16:00:43.482Z,100700.00
2024-03-01T16:03:10.541Z,100698.44
2024-03-01T16:05:41.220Z,100699.16
2024-03-01T16:08:19.320Z,100701.81
2024-03-01T16:10:57.775Z,100691.31
2024-03-01T16:13:33.073Z,100700.78
2024-03-01T16:16:02.324Z,100707.00
2024-03-01T16:18:34.596Z,100698.31
2024-03-01T16:21:03.208Z,100694.56
2024-03-01T16:23:31.102Z,100707.03
2024-03-01T16:25:58.656Z,100698.34
2024-03-01T16:28:26.922Z,100703.53
2024-03-01T16:31:03.540Z,100710.75
2024-03-01T16:33:31.864Z,100701.09
2024-03-01T16:36:06.331Z,100694.94
2024-03-01T16:38:37.660Z,100686.94
2024-03-01T16:41:14.920Z,100691.31
2024-03-01T16:43:45.203Z,100689.66
2024-03-01T16:46:22.846Z,100676.56
2024-03-01T16:48:54.134Z,100687.13
2024-03-01T16:51:42.500Z,100693.22
2024-03-01T16:54:26.328Z,100694.03
2024-03-01T16:56:59.774Z,100691.53
2024-03-01T16:59:27.174Z,100699.41
2024-03-01T17:01:56.547Z,100708.19
2024-03-01T17:04:27.801Z,100701.16
2024-03-01T17:07:01.667Z,100706.44
2024-03-01T17:09:32.023Z,100698.47
2024-03-01T17:11:59.379Z,100693.16
2024-03-01T17:14:26.758Z,100690.56
2024-03-01T17:16:55.479Z,100700.25
2024-03-01T17:19:35.800Z,100687.94
2024-03-01T17:22:04.321Z,100684.34
2024-03-01T17:24:31.885Z,100691.44
2024-03-01T17:26:59.026Z,100698.44
2024-03-01T17:29:26.319Z,100692.34
2024-03-01T17:31:53.519Z,100702.88
2024-03-01T17:34:20.614Z,100699.25
2024-03-01T17:36:47.678Z,100703.69
2024-03-01T17:39:15.023Z,100714.25
2024-03-01T17:41:42.141Z,100716.84
2024-03-01T17:44:09.415Z,100712.41
2024-03-01T17:46:37.153Z,100714.06
2024-03-01T17:49:04.479Z,100707.25
2024-03-01T17:51:31.706Z,100706.31
2024-03-01T17:54:01.014Z,100715.94
2024-03-01T17:56:28.256Z,100718.63
2024-03-01T17:58:55.542Z,100700.22
2024-03-01T18:01:22.867Z,100715.00
2024-03-01T18:03:50.025Z,100719.22
2024-03-01T18:06:17.043Z,100727.22
2024-03-01T18:08:44.095Z,100733.56
2024-03-01T18:11:11.209Z,100751.16
2024-03-01T18:13:38.663Z,100747.69
2024-03-01T18:16:06.761Z,100745.94
2024-03-01T18:18:33.800Z,100749.44
2024-03-01T18:21:00.985Z,100748.53
2024-03-01T18:23:28.031Z,100738.88
2024-03-01T18:25:57.941Z,100733.63
2024-03-01T18:28:25.048Z,100723.13
2024-03-01T18:30:52.153Z,100714.31
2024-03-01T18:33:19.438Z,100699.28
2024-03-01T18:35:46.710Z,100699.25
2024-03-01T18:38:13.970Z,100688.81
2024-03-01T18:40:41.198Z,100683.56
2024-03-01T18:43:08.518Z,100671.28
2024-03-01T18:45:35.816Z,100680.97
2024-03-01T18:48:03.269Z,100671.25
2024-03-01T18:50:30.407Z,100673.09
2024-03-01T18:52:58.573Z,100673.91
2024-03-01T18:55:25.879Z,100676.59
2024-03-01T18:57:54.651Z,100680.03
2024-03-01T19:00:23.068Z,100683.50
2024-03-01T19:02:50.443Z,100675.50
2024-03-01T19:05:17.985Z,100682.72
2024-03-01T19:07:45.303Z,100682.59
2024-03-01T19:10:12.507Z,100674.00
2024-03-01T19:12:39.670Z,100675.84
2024-03-01T19:15:10.741Z,100668.81
2024-03-01T19:17:38.616Z,100655.63
2024-03-01T19:20:06.634Z,100647.69
2024-03-01T19:22:34.921Z,100639.81
2024-03-01T19:25:02.946Z,100639.06
2024-03-01T19:27:30.874Z,100626.81
2024-03-01T19:29:57.927Z,100627.69
2024-03-01T19:32:25.315Z,100625.94
2024-03-01T19:34:52.491Z,100626.72
2024-03-01T19:37:20.132Z,100622.38
2024-03-01T19:39:47.331Z,100615.41
2024-03-01T19:42:15.720Z,100604.00
2024-03-01T19:44:43.996Z,100602.28
2024-03-01T19:47:12.303Z,100601.44
2024-03-01T19:49:39.710Z,100597.91
2024-03-01T19:52:07.081Z,100588.25
2024-03-01T19:54:34.206Z,100597.88
2024-03-01T19:57:04.707Z,100598.63
2024-03-01T19:59:32.619Z,100605.66
2024-03-01T20:01:59.786Z,100609.16
2024-03-01T20:04:27.120Z,100623.22
2024-03-01T20:06:54.367Z,100623.22
2024-03-01T20:09:21.612Z,100624.09
2024-03-01T20:11:55.883Z,100618.00
2024-03-01T20:14:23.858Z,100624.94
2024-03-01T20:16:52.589Z,100651.34
2024-03-01T20:19:19.942Z,100640.75
2024-03-01T20:21:47.453Z,100625.81
2024-03-01T20:24:14.545Z,100644.28
2024-03-01T20:26:41.633Z,100637.31
2024-03-01T20:29:10.492Z,100660.13
2024-03-01T20:31:37.686Z,100650.47
2024-03-01T20:34:04.829Z,100656.59
2024-03-01T20:36:31.888Z,100653.09
2024-03-01T20:38:59.280Z,100663.63
2024-03-01T20:41:26.385Z,100672.34
2024-03-01T20:43:53.475Z,100663.56
2024-03-01T20:46:20.543Z,100674.09
2024-03-01T20:48:47.724Z,100667.94
2024-03-01T20:51:14.839Z,100654.78
2024-03-01T20:53:41.997Z,100651.25
2024-03-01T20:56:09.162Z,100667.94
2024-03-01T20:58:37.505Z,100645.91
2024-03-01T21:01:05.080Z,100651.19
2024-03-01T21:03:32.222Z,100644.22
2024-03-01T21:05:59.397Z,100630.13
2024-03-01T21:08:26.457Z,100629.19
2024-03-01T21:10:54.738Z,100621.25
2024-03-01T21:13:21.942Z,100624.06
2024-03-01T21:15:49.964Z,100627.50
2024-03-01T21:18:19.273Z,100632.66
2024-03-01T21:20:46.424Z,100626.56
2024-03-01T21:23:14.088Z,100621.19
2024-03-01T21:25:41.429Z,100616.00
2024-03-01T21:28:08.591Z,100608.22
2024-03-01T21:30:35.753Z,100602.19
2024-03-01T21:33:03.028Z,100582.94
2024-03-01T21:35:31.444Z,100574.22
2024-03-01T21:37:58.616Z,100572.44
2024-03-01T21:40:25.825Z,100561.03
2024-03-01T21:42:52.938Z,100543.59
2024-03-01T21:45:20.075Z,100535.78
2024-03-01T21:47:47.609Z,100543.59
2024-03-01T21:50:14.848Z,100549.63
2024-03-01T21:52:42.492Z,100546.13
2024-03-01T21:55:09.773Z,100554.84
2024-03-01T21:57:37.058Z,100551.41
2024-03-01T22:00:05.180Z,100549.59
2024-03-01T22:02:32.447Z,100554.84
2024-03-01T22:05:02.272Z,100555.72
2024-03-01T22:07:31.538Z,100560.16
2024-03-01T22:09:59.230Z,100555.81
2024-03-01T22:12:26.369Z,100554.91
2024-03-01T22:14:54.156Z,100565.31
2024-03-01T22:17:21.361Z,100550.41
2024-03-01T22:19:48.421Z,100537.41
2024-03-01T22:22:15.588Z,100540.84
2024-03-01T22:24:44.341Z,100573.13
2024-03-01T22:27:11.684Z,100583.78
2024-03-01T22:29:38.803Z,100583.56
2024-03-01T22:32:06.485Z,100587.16
2024-03-01T22:34:33.805Z,100594.97
2024-03-01T22:37:01.010Z,100613.31
2024-03-01T22:39:28.752Z,100615.78
2024-03-01T22:41:56.394Z,100612.28
2024-03-01T22:44:23.734Z,100604.34
2024-03-01T22:46:51.105Z,100601.66
2024-03-01T22:49:18.547Z,100596.41
2024-03-01T22:51:49.529Z,100595.53
2024-03-01T22:54:27.012Z,100596.44
2024-03-01T22:56:54.267Z,100594.75
2024-03-01T23:00:22.437Z,100593.69
2024-03-01T23:02:53.398Z,100600.56
2024-03-01T23:05:48.710Z,100603.88
2024-03-01T23:08:39.111Z,100607.88
2024-03-01T23:11:08.534Z,100619.78
2024-03-01T23:13:42.018Z,100614.25
2024-03-01T23:16:09.924Z,100608.78
2024-03-01T23:18:37.196Z,100605.97
2024-03-01T23:21:04.482Z,100607.81
2024-03-01T23:23:31.630Z,100603.19
2024-03-01T23:25:59.280Z,100596.28
2024-03-01T23:28:27.036Z,100597.13
2024-03-01T23:30:54.407Z,100593.00
2024-03-01T23:33:21.883Z,100594.69
2024-03-01T23:35:49.136Z,100594.53
2024-03-01T23:38:16.183Z,100584.88
2024-03-01T23:40:51.542Z,100576.13
2024-03-01T23:43:24.489Z,100580.59
2024-03-01T23:45:51.755Z,100579.56
2024-03-01T23:48:21.565Z,100565.47
2024-03-01T23:50:49.093Z,100568.59
2024-03-01T23:53:19.704Z,100565.25
2024-03-01T23:55:47.364Z,100560.72
2024-03-01T23:58:14.929Z,100559.69
